sensor_id;sensor_type;location;lat;lon;timestamp;P1;durP1;ratioP1;P2;durP2;ratioP2
17727;SDS011;8984;49.268;12.302;2023-05-10T00:00:40;7.13;;;4.70;;
17727;SDS011;8984;49.268;12.302;2023-05-10T00:03:07;6.60;;;4.70;;
17727;SDS011;8984;49.268;12.302;2023-05-10T00:05:34;9.43;;;4.70;;
17727;SDS011;8984;49.268;12.302;2023-05-10T00:08:00;6.07;;;4.37;;
17727;SDS011;8984;49.268;12.302;2023-05-10T00:10:27;7.10;;;4.53;;
17727;SDS011;8984;49.268;12.302;2023-05-10T00:12:55;6.90;;;5.23;;
17727;SDS011;8984;49.268;12.302;2023-05-10T00:15:22;5.20;;;4.70;;
17727;SDS011;8984;49.268;12.302;2023-05-10T00:17:49;5.67;;;4.67;;
17727;SDS011;8984;49.268;12.302;2023-05-10T00:20:16;4.90;;;4.40;;
17727;SDS011;8984;49.268;12.302;2023-05-10T00:22:42;5.23;;;4.30;;
17727;SDS011;8984;49.268;12.302;2023-05-10T00:25:09;5.63;;;4.90;;
17727;SDS011;8984;49.268;12.302;2023-05-10T00:27:36;5.93;;;4.73;;
17727;SDS011;8984;49.268;12.302;2023-05-10T00:30:05;6.93;;;5.00;;
17727;SDS011;8984;49.268;12.302;2023-05-10T00:32:33;5.70;;;4.83;;
17727;SDS011;8984;49.268;12.302;2023-05-10T00:35:00;8.40;;;4.97;;
17727;SDS011;8984;49.268;12.302;2023-05-10T00:37:27;7.97;;;5.27;;
17727;SDS011;8984;49.268;12.302;2023-05-10T00:39:54;6.17;;;5.10;;
17727;SDS011;8984;49.268;12.302;2023-05-10T00:42:21;5.60;;;4.87;;
17727;SDS011;8984;49.268;12.302;2023-05-10T00:44:48;8.10;;;5.70;;
17727;SDS011;8984;49.268;12.302;2023-05-10T00:47:16;5.80;;;5.20;;
17727;SDS011;8984;49.268;12.302;2023-05-10T00:49:43;8.83;;;6.03;;
17727;SDS011;8984;49.268;12.302;2023-05-10T00:52:11;9.07;;;5.47;;
17727;SDS011;8984;49.268;12.302;2023-05-10T00:54:38;6.13;;;5.00;;
17727;SDS011;8984;49.268;12.302;2023-05-10T00:57:05;6.10;;;5.50;;
17727;SDS011;8984;49.268;12.302;2023-05-10T00:59:32;8.27;;;5.90;;
17727;SDS011;8984;49.268;12.302;2023-05-10T01:01:59;6.03;;;5.23;;
17727;SDS011;8984;49.268;12.302;2023-05-10T01:04:27;5.33;;;4.83;;
17727;SDS011;8984;49.268;12.302;2023-05-10T01:06:55;4.97;;;4.47;;
17727;SDS011;8984;49.268;12.302;2023-05-10T01:09:22;6.77;;;4.60;;
17727;SDS011;8984;49.268;12.302;2023-05-10T01:11:51;5.90;;;4.30;;
17727;SDS011;8984;49.268;12.302;2023-05-10T01:14:18;5.43;;;4.93;;
17727;SDS011;8984;49.268;12.302;2023-05-10T01:16:46;4.97;;;4.47;;
17727;SDS011;8984;49.268;12.302;2023-05-10T01:19:16;6.17;;;4.07;;
17727;SDS011;8984;49.268;12.302;2023-05-10T01:21:49;5.17;;;3.93;;
17727;SDS011;8984;49.268;12.302;2023-05-10T01:24:38;5.43;;;4.23;;
17727;SDS011;8984;49.268;12.302;2023-05-10T01:27:25;5.37;;;4.00;;
17727;SDS011;8984;49.268;12.302;2023-05-10T01:33:15;5.30;;;3.60;;
17727;SDS011;8984;49.268;12.302;2023-05-10T01:35:47;3.93;;;3.40;;
17727;SDS011;8984;49.268;12.302;2023-05-10T01:38:19;4.57;;;3.73;;
17727;SDS011;8984;49.268;12.302;2023-05-10T01:40:55;4.63;;;3.73;;
17727;SDS011;8984;49.268;12.302;2023-05-10T01:43:32;8.20;;;3.90;;
17727;SDS011;8984;49.268;12.302;2023-05-10T01:46:09;8.47;;;4.07;;
17727;SDS011;8984;49.268;12.302;2023-05-10T01:48:47;3.87;;;3.20;;
17727;SDS011;8984;49.268;12.302;2023-05-10T01:51:17;3.83;;;3.37;;
17727;SDS011;8984;49.268;12.302;2023-05-10T01:53:49;4.03;;;3.30;;
17727;SDS011;8984;49.268;12.302;2023-05-10T01:56:23;6.97;;;3.70;;
17727;SDS011;8984;49.268;12.302;2023-05-10T01:58:51;3.90;;;3.50;;
17727;SDS011;8984;49.268;12.302;2023-05-10T02:01:19;4.10;;;3.20;;
17727;SDS011;8984;49.268;12.302;2023-05-10T02:03:48;4.30;;;3.53;;
17727;SDS011;8984;49.268;12.302;2023-05-10T02:06:18;5.10;;;3.50;;
17727;SDS011;8984;49.268;12.302;2023-05-10T02:08:46;5.37;;;4.07;;
17727;SDS011;8984;49.268;12.302;2023-05-10T02:11:15;5.40;;;3.83;;
17727;SDS011;8984;49.268;12.302;2023-05-10T02:13:44;5.87;;;3.17;;
17727;SDS011;8984;49.268;12.302;2023-05-10T02:16:12;4.73;;;3.30;;
17727;SDS011;8984;49.268;12.302;2023-05-10T02:18:40;3.90;;;3.30;;
17727;SDS011;8984;49.268;12.302;2023-05-10T02:21:09;3.87;;;3.47;;
17727;SDS011;8984;49.268;12.302;2023-05-10T02:23:36;7.47;;;3.30;;
17727;SDS011;8984;49.268;12.302;2023-05-10T02:26:04;5.50;;;3.50;;
17727;SDS011;8984;49.268;12.302;2023-05-10T02:28:33;4.13;;;3.60;;
17727;SDS011;8984;49.268;12.302;2023-05-10T02:31:02;7.97;;;3.70;;
17727;SDS011;8984;49.268;12.302;2023-05-10T02:33:30;3.90;;;3.30;;
17727;SDS011;8984;49.268;12.302;2023-05-10T02:35:58;6.07;;;3.70;;
17727;SDS011;8984;49.268;12.302;2023-05-10T02:38:28;6.73;;;3.90;;
17727;SDS011;8984;49.268;12.302;2023-05-10T02:40:56;3.77;;;3.37;;
17727;SDS011;8984;49.268;12.302;2023-05-10T02:43:24;3.77;;;3.40;;
17727;SDS011;8984;49.268;12.302;2023-05-10T02:45:51;4.60;;;3.60;;
17727;SDS011;8984;49.268;12.302;2023-05-10T02:48:18;6.57;;;3.60;;
17727;SDS011;8984;49.268;12.302;2023-05-10T02:50:45;5.00;;;3.47;;
17727;SDS011;8984;49.268;12.302;2023-05-10T02:53:18;4.20;;;3.80;;
17727;SDS011;8984;49.268;12.302;2023-05-10T02:55:50;5.13;;;3.47;;
17727;SDS011;8984;49.268;12.302;2023-05-10T02:58:18;5.37;;;3.63;;
17727;SDS011;8984;49.268;12.302;2023-05-10T03:00:46;4.33;;;3.60;;
17727;SDS011;8984;49.268;12.302;2023-05-10T03:03:12;6.50;;;3.60;;
17727;SDS011;8984;49.268;12.302;2023-05-10T03:05:39;5.50;;;3.83;;
17727;SDS011;8984;49.268;12.302;2023-05-10T03:08:06;5.57;;;3.80;;
17727;SDS011;8984;49.268;12.302;2023-05-10T03:10:33;3.80;;;3.40;;
17727;SDS011;8984;49.268;12.302;2023-05-10T03:13:10;5.47;;;3.53;;
17727;SDS011;8984;49.268;12.302;2023-05-10T03:15:53;3.90;;;3.37;;
17727;SDS011;8984;49.268;12.302;2023-05-10T03:18:28;4.73;;;3.90;;
17727;SDS011;8984;49.268;12.302;2023-05-10T03:21:03;4.43;;;3.40;;
17727;SDS011;8984;49.268;12.302;2023-05-10T03:23:35;4.03;;;3.53;;
17727;SDS011;8984;49.268;12.302;2023-05-10T03:26:07;5.83;;;3.80;;
17727;SDS011;8984;49.268;12.302;2023-05-10T03:28:36;7.90;;;3.83;;
17727;SDS011;8984;49.268;12.302;2023-05-10T03:31:03;4.30;;;3.77;;
17727;SDS011;8984;49.268;12.302;2023-05-10T03:33:32;4.90;;;3.50;;
17727;SDS011;8984;49.268;12.302;2023-05-10T03:35:58;4.10;;;3.70;;
17727;SDS011;8984;49.268;12.302;2023-05-10T03:38:25;5.00;;;4.00;;
17727;SDS011;8984;49.268;12.302;2023-05-10T03:40:52;4.37;;;3.70;;
17727;SDS011;8984;49.268;12.302;2023-05-10T03:43:19;5.17;;;3.70;;
17727;SDS011;8984;49.268;12.302;2023-05-10T03:45:47;5.17;;;4.43;;
17727;SDS011;8984;49.268;12.302;2023-05-10T03:48:14;5.97;;;4.20;;
17727;SDS011;8984;49.268;12.302;2023-05-10T03:50:41;8.43;;;4.43;;
17727;SDS011;8984;49.268;12.302;2023-05-10T03:53:08;4.10;;;3.80;;
17727;SDS011;8984;49.268;12.302;2023-05-10T03:55:34;4.90;;;3.93;;
17727;SDS011;8984;49.268;12.302;2023-05-10T03:58:01;5.03;;;4.53;;
17727;SDS011;8984;49.268;12.302;2023-05-10T04:00:28;20.60;;;14.63;;
17727;SDS011;8984;49.268;12.302;2023-05-10T04:02:56;37.13;;;24.60;;
17727;SDS011;8984;49.268;12.302;2023-05-10T04:05:23;23.60;;;15.73;;
17727;SDS011;8984;49.268;12.302;2023-05-10T04:07:51;14.97;;;13.07;;
17727;SDS011;8984;49.268;12.302;2023-05-10T04:10:17;11.30;;;7.00;;
17727;SDS011;8984;49.268;12.302;2023-05-10T04:12:46;6.37;;;5.10;;
17727;SDS011;8984;49.268;12.302;2023-05-10T04:15:13;5.50;;;4.57;;
17727;SDS011;8984;49.268;12.302;2023-05-10T04:17:39;5.23;;;4.73;;
17727;SDS011;8984;49.268;12.302;2023-05-10T04:20:08;7.60;;;5.20;;
17727;SDS011;8984;49.268;12.302;2023-05-10T04:22:36;8.03;;;5.07;;
17727;SDS011;8984;49.268;12.302;2023-05-10T04:25:03;5.13;;;4.20;;
17727;SDS011;8984;49.268;12.302;2023-05-10T04:27:30;6.43;;;4.90;;
17727;SDS011;8984;49.268;12.302;2023-05-10T04:29:57;5.27;;;4.60;;
17727;SDS011;8984;49.268;12.302;2023-05-10T04:32:24;4.80;;;4.40;;
17727;SDS011;8984;49.268;12.302;2023-05-10T04:34:50;5.73;;;4.60;;
17727;SDS011;8984;49.268;12.302;2023-05-10T04:37:19;6.80;;;5.40;;
17727;SDS011;8984;49.268;12.302;2023-05-10T04:39:47;6.13;;;5.50;;
17727;SDS011;8984;49.268;12.302;2023-05-10T04:42:15;7.70;;;4.97;;
17727;SDS011;8984;49.268;12.302;2023-05-10T04:44:41;5.47;;;4.93;;
17727;SDS011;8984;49.268;12.302;2023-05-10T04:47:08;6.57;;;4.70;;
17727;SDS011;8984;49.268;12.302;2023-05-10T04:49:36;7.03;;;4.87;;
17727;SDS011;8984;49.268;12.302;2023-05-10T04:52:03;5.30;;;4.80;;
17727;SDS011;8984;49.268;12.302;2023-05-10T04:54:31;7.23;;;4.77;;
17727;SDS011;8984;49.268;12.302;2023-05-10T04:56:58;6.53;;;5.27;;
17727;SDS011;8984;49.268;12.302;2023-05-10T04:59:24;8.70;;;5.20;;
17727;SDS011;8984;49.268;12.302;2023-05-10T05:01:51;7.40;;;5.07;;
17727;SDS011;8984;49.268;12.302;2023-05-10T05:04:18;7.03;;;5.77;;
17727;SDS011;8984;49.268;12.302;2023-05-10T05:06:45;7.47;;;5.37;;
17727;SDS011;8984;49.268;12.302;2023-05-10T05:09:11;6.27;;;5.67;;
17727;SDS011;8984;49.268;12.302;2023-05-10T05:11:39;6.20;;;5.60;;
17727;SDS011;8984;49.268;12.302;2023-05-10T05:14:06;8.23;;;5.27;;
17727;SDS011;8984;49.268;12.302;2023-05-10T05:16:33;8.10;;;6.17;;
17727;SDS011;8984;49.268;12.302;2023-05-10T05:19:00;6.17;;;5.57;;
17727;SDS011;8984;49.268;12.302;2023-05-10T05:21:27;9.20;;;5.63;;
17727;SDS011;8984;49.268;12.302;2023-05-10T05:23:54;6.87;;;4.70;;
17727;SDS011;8984;49.268;12.302;2023-05-10T05:26:20;6.43;;;4.97;;
17727;SDS011;8984;49.268;12.302;2023-05-10T05:28:48;8.03;;;5.37;;
17727;SDS011;8984;49.268;12.302;2023-05-10T05:31:18;7.20;;;5.20;;
17727;SDS011;8984;49.268;12.302;2023-05-10T05:33:45;5.60;;;5.10;;
17727;SDS011;8984;49.268;12.302;2023-05-10T05:36:12;7.17;;;5.20;;
17727;SDS011;8984;49.268;12.302;2023-05-10T05:38:39;7.23;;;5.70;;
17727;SDS011;8984;49.268;12.302;2023-05-10T05:41:06;6.57;;;5.90;;
17727;SDS011;8984;49.268;12.302;2023-05-10T05:43:32;9.07;;;6.20;;
17727;SDS011;8984;49.268;12.302;2023-05-10T05:46:00;8.07;;;6.80;;
17727;SDS011;8984;49.268;12.302;2023-05-10T05:48:29;6.73;;;6.00;;
17727;SDS011;8984;49.268;12.302;2023-05-10T05:50:56;7.30;;;5.63;;
17727;SDS011;8984;49.268;12.302;2023-05-10T05:53:23;10.47;;;6.33;;
17727;SDS011;8984;49.268;12.302;2023-05-10T05:55:53;9.80;;;7.43;;
17727;SDS011;8984;49.268;12.302;2023-05-10T05:58:20;7.10;;;6.40;;
17727;SDS011;8984;49.268;12.302;2023-05-10T06:00:47;7.57;;;6.87;;
17727;SDS011;8984;49.268;12.302;2023-05-10T06:03:15;14.60;;;7.90;;
17727;SDS011;8984;49.268;12.302;2023-05-10T06:05:42;11.63;;;7.63;;
17727;SDS011;8984;49.268;12.302;2023-05-10T06:08:09;9.30;;;6.67;;
17727;SDS011;8984;49.268;12.302;2023-05-10T06:10:36;10.50;;;7.50;;
17727;SDS011;8984;49.268;12.302;2023-05-10T06:13:02;10.80;;;7.10;;
17727;SDS011;8984;49.268;12.302;2023-05-10T06:15:29;14.23;;;7.93;;
17727;SDS011;8984;49.268;12.302;2023-05-10T06:17:57;25.93;;;14.50;;
17727;SDS011;8984;49.268;12.302;2023-05-10T06:20:25;30.23;;;15.10;;
17727;SDS011;8984;49.268;12.302;2023-05-10T06:22:52;25.73;;;14.07;;
17727;SDS011;8984;49.268;12.302;2023-05-10T06:25:18;17.77;;;11.43;;
17727;SDS011;8984;49.268;12.302;2023-05-10T06:27:45;17.70;;;11.00;;
17727;SDS011;8984;49.268;12.302;2023-05-10T06:30:12;9.13;;;6.97;;
17727;SDS011;8984;49.268;12.302;2023-05-10T06:32:40;9.77;;;8.23;;
17727;SDS011;8984;49.268;12.302;2023-05-10T06:35:08;10.57;;;7.67;;
17727;SDS011;8984;49.268;12.302;2023-05-10T06:37:37;10.07;;;7.73;;
17727;SDS011;8984;49.268;12.302;2023-05-10T06:40:05;10.27;;;7.47;;
17727;SDS011;8984;49.268;12.302;2023-05-10T06:42:32;8.53;;;7.23;;
17727;SDS011;8984;49.268;12.302;2023-05-10T06:44:59;11.83;;;8.33;;
17727;SDS011;8984;49.268;12.302;2023-05-10T06:47:26;8.80;;;7.80;;
17727;SDS011;8984;49.268;12.302;2023-05-10T06:49:53;10.60;;;8.07;;
17727;SDS011;8984;49.268;12.302;2023-05-10T06:52:20;8.77;;;7.87;;
17727;SDS011;8984;49.268;12.302;2023-05-10T06:54:49;7.77;;;6.70;;
17727;SDS011;8984;49.268;12.302;2023-05-10T06:57:16;7.60;;;6.80;;
17727;SDS011;8984;49.268;12.302;2023-05-10T06:59:44;8.97;;;6.70;;
17727;SDS011;8984;49.268;12.302;2023-05-10T07:02:10;8.23;;;6.73;;
17727;SDS011;8984;49.268;12.302;2023-05-10T07:04:37;8.50;;;7.13;;
17727;SDS011;8984;49.268;12.302;2023-05-10T07:07:04;8.10;;;6.50;;
17727;SDS011;8984;49.268;12.302;2023-05-10T07:09:31;7.27;;;6.00;;
17727;SDS011;8984;49.268;12.302;2023-05-10T07:11:59;7.63;;;6.53;;
17727;SDS011;8984;49.268;12.302;2023-05-10T07:14:26;9.10;;;7.13;;
17727;SDS011;8984;49.268;12.302;2023-05-10T07:16:53;7.73;;;6.37;;
17727;SDS011;8984;49.268;12.302;2023-05-10T07:19:21;8.57;;;6.93;;
17727;SDS011;8984;49.268;12.302;2023-05-10T07:21:48;8.53;;;7.30;;
17727;SDS011;8984;49.268;12.302;2023-05-10T07:24:15;9.07;;;7.07;;
17727;SDS011;8984;49.268;12.302;2023-05-10T07:26:42;7.77;;;6.70;;
17727;SDS011;8984;49.268;12.302;2023-05-10T07:29:10;8.60;;;6.40;;
17727;SDS011;8984;49.268;12.302;2023-05-10T07:31:37;7.73;;;6.53;;
17727;SDS011;8984;49.268;12.302;2023-05-10T07:34:06;9.53;;;7.83;;
17727;SDS011;8984;49.268;12.302;2023-05-10T07:36:33;8.33;;;6.07;;
17727;SDS011;8984;49.268;12.302;2023-05-10T07:39:00;8.63;;;7.07;;
17727;SDS011;8984;49.268;12.302;2023-05-10T07:41:27;7.83;;;7.03;;
17727;SDS011;8984;49.268;12.302;2023-05-10T07:43:54;8.27;;;6.37;;
17727;SDS011;8984;49.268;12.302;2023-05-10T07:46:22;8.30;;;7.27;;
17727;SDS011;8984;49.268;12.302;2023-05-10T07:48:49;7.90;;;6.57;;
17727;SDS011;8984;49.268;12.302;2023-05-10T07:51:15;10.80;;;6.60;;
17727;SDS011;8984;49.268;12.302;2023-05-10T07:53:42;7.63;;;6.83;;
17727;SDS011;8984;49.268;12.302;2023-05-10T07:56:22;8.90;;;6.23;;
17727;SDS011;8984;49.268;12.302;2023-05-10T07:58:52;7.47;;;6.63;;
17727;SDS011;8984;49.268;12.302;2023-05-10T08:01:19;7.97;;;7.17;;
17727;SDS011;8984;49.268;12.302;2023-05-10T08:03:48;9.50;;;8.10;;
17727;SDS011;8984;49.268;12.302;2023-05-10T08:06:16;11.00;;;7.63;;
17727;SDS011;8984;49.268;12.302;2023-05-10T08:08:44;8.07;;;7.27;;
17727;SDS011;8984;49.268;12.302;2023-05-10T08:11:14;7.67;;;6.73;;
17727;SDS011;8984;49.268;12.302;2023-05-10T08:13:41;7.07;;;6.37;;
17727;SDS011;8984;49.268;12.302;2023-05-10T08:16:07;6.90;;;6.27;;
17727;SDS011;8984;49.268;12.302;2023-05-10T08:18:36;6.93;;;5.90;;
17727;SDS011;8984;49.268;12.302;2023-05-10T08:21:03;7.37;;;6.67;;
17727;SDS011;8984;49.268;12.302;2023-05-10T08:23:30;6.00;;;5.20;;
17727;SDS011;8984;49.268;12.302;2023-05-10T08:25:57;7.57;;;6.50;;
17727;SDS011;8984;49.268;12.302;2023-05-10T08:28:23;6.67;;;5.97;;
17727;SDS011;8984;49.268;12.302;2023-05-10T08:30:50;6.23;;;5.57;;
17727;SDS011;8984;49.268;12.302;2023-05-10T08:33:17;7.70;;;6.57;;
17727;SDS011;8984;49.268;12.302;2023-05-10T08:35:45;6.27;;;5.67;;
17727;SDS011;8984;49.268;12.302;2023-05-10T08:38:12;6.07;;;5.27;;
17727;SDS011;8984;49.268;12.302;2023-05-10T08:40:39;6.40;;;5.80;;
17727;SDS011;8984;49.268;12.302;2023-05-10T08:43:09;5.50;;;5.00;;
17727;SDS011;8984;49.268;12.302;2023-05-10T08:45:37;5.43;;;4.93;;
17727;SDS011;8984;49.268;12.302;2023-05-10T08:48:06;5.67;;;5.07;;
17727;SDS011;8984;49.268;12.302;2023-05-10T08:50:34;6.03;;;5.03;;
17727;SDS011;8984;49.268;12.302;2023-05-10T08:53:04;5.80;;;5.00;;
17727;SDS011;8984;49.268;12.302;2023-05-10T08:55:32;5.30;;;4.80;;
17727;SDS011;8984;49.268;12.302;2023-05-10T08:58:01;5.10;;;4.60;;
17727;SDS011;8984;49.268;12.302;2023-05-10T09:00:28;4.40;;;4.00;;
17727;SDS011;8984;49.268;12.302;2023-05-10T09:02:55;4.70;;;4.30;;
17727;SDS011;8984;49.268;12.302;2023-05-10T09:05:22;5.43;;;4.50;;
17727;SDS011;8984;49.268;12.302;2023-05-10T09:07:49;5.83;;;5.00;;
17727;SDS011;8984;49.268;12.302;2023-05-10T09:10:17;5.10;;;4.60;;
17727;SDS011;8984;49.268;12.302;2023-05-10T09:12:44;4.90;;;4.37;;
17727;SDS011;8984;49.268;12.302;2023-05-10T09:15:12;4.67;;;4.27;;
17727;SDS011;8984;49.268;12.302;2023-05-10T09:17:44;4.97;;;4.33;;
17727;SDS011;8984;49.268;12.302;2023-05-10T09:20:11;5.37;;;4.10;;
17727;SDS011;8984;49.268;12.302;2023-05-10T09:22:38;4.43;;;4.03;;
17727;SDS011;8984;49.268;12.302;2023-05-10T09:25:06;4.13;;;3.73;;
17727;SDS011;8984;49.268;12.302;2023-05-10T09:27:35;6.23;;;4.40;;
17727;SDS011;8984;49.268;12.302;2023-05-10T09:30:03;4.53;;;4.10;;
17727;SDS011;8984;49.268;12.302;2023-05-10T09:32:38;3.70;;;3.40;;
17727;SDS011;8984;49.268;12.302;2023-05-10T09:35:06;4.63;;;3.87;;
17727;SDS011;8984;49.268;12.302;2023-05-10T09:37:34;4.20;;;3.80;;
17727;SDS011;8984;49.268;12.302;2023-05-10T09:40:00;4.23;;;3.87;;
17727;SDS011;8984;49.268;12.302;2023-05-10T09:42:31;5.20;;;4.00;;
17727;SDS011;8984;49.268;12.302;2023-05-10T09:45:01;4.37;;;3.90;;
17727;SDS011;8984;49.268;12.302;2023-05-10T09:47:28;3.57;;;3.27;;
17727;SDS011;8984;49.268;12.302;2023-05-10T09:49:57;3.53;;;3.23;;
17727;SDS011;8984;49.268;12.302;2023-05-10T09:52:28;3.50;;;3.20;;
17727;SDS011;8984;49.268;12.302;2023-05-10T09:54:55;5.03;;;3.63;;
17727;SDS011;8984;49.268;12.302;2023-05-10T09:57:23;3.93;;;3.53;;
17727;SDS011;8984;49.268;12.302;2023-05-10T09:59:50;6.00;;;4.00;;
17727;SDS011;8984;49.268;12.302;2023-05-10T10:02:20;4.10;;;3.70;;
17727;SDS011;8984;49.268;12.302;2023-05-10T10:04:53;3.77;;;3.43;;
17727;SDS011;8984;49.268;12.302;2023-05-10T10:07:22;3.27;;;2.97;;
17727;SDS011;8984;49.268;12.302;2023-05-10T10:09:50;3.40;;;3.10;;
17727;SDS011;8984;49.268;12.302;2023-05-10T10:12:17;4.40;;;3.47;;
17727;SDS011;8984;49.268;12.302;2023-05-10T10:14:45;5.27;;;3.90;;
17727;SDS011;8984;49.268;12.302;2023-05-10T10:17:13;13.90;;;7.73;;
17727;SDS011;8984;49.268;12.302;2023-05-10T10:19:41;3.97;;;3.57;;
17727;SDS011;8984;49.268;12.302;2023-05-10T10:22:08;9.07;;;5.97;;
17727;SDS011;8984;49.268;12.302;2023-05-10T10:24:37;10.47;;;5.70;;
17727;SDS011;8984;49.268;12.302;2023-05-10T10:27:07;30.17;;;13.43;;
17727;SDS011;8984;49.268;12.302;2023-05-10T10:29:43;6.23;;;3.77;;
17727;SDS011;8984;49.268;12.302;2023-05-10T10:32:19;9.33;;;5.60;;
17727;SDS011;8984;49.268;12.302;2023-05-10T10:34:53;13.33;;;7.27;;
17727;SDS011;8984;49.268;12.302;2023-05-10T10:37:21;5.60;;;4.27;;
17727;SDS011;8984;49.268;12.302;2023-05-10T10:39:48;4.50;;;4.03;;
17727;SDS011;8984;49.268;12.302;2023-05-10T10:42:15;9.10;;;6.07;;
17727;SDS011;8984;49.268;12.302;2023-05-10T10:45:12;11.00;;;6.50;;
17727;SDS011;8984;49.268;12.302;2023-05-10T10:47:39;8.17;;;5.83;;
17727;SDS011;8984;49.268;12.302;2023-05-10T10:50:09;15.13;;;8.23;;
17727;SDS011;8984;49.268;12.302;2023-05-10T10:52:37;9.77;;;5.90;;
17727;SDS011;8984;49.268;12.302;2023-05-10T10:55:06;17.47;;;9.90;;
17727;SDS011;8984;49.268;12.302;2023-05-10T10:57:42;15.90;;;8.50;;
17727;SDS011;8984;49.268;12.302;2023-05-10T11:00:18;10.77;;;7.10;;
17727;SDS011;8984;49.268;12.302;2023-05-10T11:02:46;8.97;;;5.80;;
17727;SDS011;8984;49.268;12.302;2023-05-10T11:05:25;14.33;;;7.20;;
17727;SDS011;8984;49.268;12.302;2023-05-10T11:07:59;7.33;;;5.33;;
17727;SDS011;8984;49.268;12.302;2023-05-10T11:10:32;9.27;;;6.13;;
17727;SDS011;8984;49.268;12.302;2023-05-10T11:12:59;7.70;;;4.93;;
17727;SDS011;8984;49.268;12.302;2023-05-10T11:15:30;12.03;;;6.27;;
17727;SDS011;8984;49.268;12.302;2023-05-10T11:17:57;11.00;;;5.93;;
17727;SDS011;8984;49.268;12.302;2023-05-10T11:20:28;4.23;;;3.47;;
17727;SDS011;8984;49.268;12.302;2023-05-10T11:23:11;3.67;;;3.23;;
17727;SDS011;8984;49.268;12.302;2023-05-10T11:25:41;5.83;;;3.77;;
17727;SDS011;8984;49.268;12.302;2023-05-10T11:28:09;3.83;;;3.37;;
17727;SDS011;8984;49.268;12.302;2023-05-10T11:30:36;3.83;;;3.50;;
17727;SDS011;8984;49.268;12.302;2023-05-10T11:33:03;3.93;;;3.63;;
17727;SDS011;8984;49.268;12.302;2023-05-10T11:35:32;3.47;;;3.10;;
17727;SDS011;8984;49.268;12.302;2023-05-10T11:38:04;3.77;;;3.33;;
17727;SDS011;8984;49.268;12.302;2023-05-10T11:40:32;3.87;;;3.13;;
17727;SDS011;8984;49.268;12.302;2023-05-10T11:42:59;3.53;;;2.90;;
17727;SDS011;8984;49.268;12.302;2023-05-10T11:45:26;4.27;;;3.30;;
17727;SDS011;8984;49.268;12.302;2023-05-10T11:47:54;3.70;;;3.07;;
17727;SDS011;8984;49.268;12.302;2023-05-10T11:50:21;6.57;;;2.83;;
17727;SDS011;8984;49.268;12.302;2023-05-10T11:52:51;3.80;;;3.10;;
17727;SDS011;8984;49.268;12.302;2023-05-10T11:55:18;3.27;;;2.93;;
17727;SDS011;8984;49.268;12.302;2023-05-10T11:57:45;4.57;;;3.00;;
17727;SDS011;8984;49.268;12.302;2023-05-10T12:00:12;2.63;;;2.42;;
17727;SDS011;8984;49.268;12.302;2023-05-10T12:02:39;2.30;;;2.10;;
17727;SDS011;8984;49.268;12.302;2023-05-10T12:05:07;2.83;;;2.40;;
17727;SDS011;8984;49.268;12.302;2023-05-10T12:07:34;6.10;;;2.78;;
17727;SDS011;8984;49.268;12.302;2023-05-10T12:10:09;2.47;;;2.28;;
17727;SDS011;8984;49.268;12.302;2023-05-10T12:12:39;3.30;;;3.00;;
17727;SDS011;8984;49.268;12.302;2023-05-10T12:15:11;3.75;;;2.42;;
17727;SDS011;8984;49.268;12.302;2023-05-10T12:17:43;3.13;;;2.17;;
17727;SDS011;8984;49.268;12.302;2023-05-10T12:20:14;3.28;;;2.50;;
17727;SDS011;8984;49.268;12.302;2023-05-10T12:22:43;3.88;;;2.13;;
17727;SDS011;8984;49.268;12.302;2023-05-10T12:25:16;5.10;;;2.22;;
17727;SDS011;8984;49.268;12.302;2023-05-10T12:27:53;3.08;;;2.40;;
17727;SDS011;8984;49.268;12.302;2023-05-10T12:30:22;3.75;;;2.50;;
17727;SDS011;8984;49.268;12.302;2023-05-10T12:32:49;2.75;;;2.05;;
17727;SDS011;8984;49.268;12.302;2023-05-10T12:35:16;2.60;;;1.95;;
17727;SDS011;8984;49.268;12.302;2023-05-10T12:37:46;3.03;;;2.35;;
17727;SDS011;8984;49.268;12.302;2023-05-10T12:40:12;3.75;;;2.67;;
17727;SDS011;8984;49.268;12.302;2023-05-10T12:42:41;3.67;;;2.42;;
17727;SDS011;8984;49.268;12.302;2023-05-10T12:45:10;2.67;;;2.03;;
17727;SDS011;8984;49.268;12.302;2023-05-10T12:47:37;2.10;;;1.90;;
17727;SDS011;8984;49.268;12.302;2023-05-10T12:50:05;2.55;;;2.30;;
17727;SDS011;8984;49.268;12.302;2023-05-10T12:52:32;2.10;;;1.80;;
17727;SDS011;8984;49.268;12.302;2023-05-10T12:54:59;2.85;;;2.17;;
17727;SDS011;8984;49.268;12.302;2023-05-10T12:57:28;3.85;;;1.95;;
17727;SDS011;8984;49.268;12.302;2023-05-10T12:59:56;2.60;;;1.30;;
17727;SDS011;8984;49.268;12.302;2023-05-10T13:02:22;1.05;;;0.80;;
17727;SDS011;8984;49.268;12.302;2023-05-10T13:04:49;1.10;;;1.00;;
17727;SDS011;8984;49.268;12.302;2023-05-10T13:07:16;4.15;;;1.10;;
17727;SDS011;8984;49.268;12.302;2023-05-10T13:09:43;1.70;;;1.05;;
17727;SDS011;8984;49.268;12.302;2023-05-10T13:12:10;1.60;;;1.00;;
17727;SDS011;8984;49.268;12.302;2023-05-10T13:14:36;1.53;;;0.90;;
17727;SDS011;8984;49.268;12.302;2023-05-10T13:17:06;1.90;;;1.20;;
17727;SDS011;8984;49.268;12.302;2023-05-10T13:19:33;1.00;;;0.90;;
17727;SDS011;8984;49.268;12.302;2023-05-10T13:22:00;2.80;;;1.40;;
17727;SDS011;8984;49.268;12.302;2023-05-10T13:24:27;1.67;;;1.05;;
17727;SDS011;8984;49.268;12.302;2023-05-10T13:26:53;1.23;;;0.70;;
17727;SDS011;8984;49.268;12.302;2023-05-10T13:29:20;2.60;;;1.10;;
17727;SDS011;8984;49.268;12.302;2023-05-10T13:31:47;2.37;;;1.03;;
17727;SDS011;8984;49.268;12.302;2023-05-10T13:34:15;1.83;;;1.20;;
17727;SDS011;8984;49.268;12.302;2023-05-10T13:36:45;3.00;;;1.20;;
17727;SDS011;8984;49.268;12.302;2023-05-10T13:39:12;2.20;;;1.40;;
17727;SDS011;8984;49.268;12.302;2023-05-10T13:41:38;2.97;;;1.40;;
17727;SDS011;8984;49.268;12.302;2023-05-10T13:44:05;3.77;;;1.77;;
17727;SDS011;8984;49.268;12.302;2023-05-10T13:46:32;1.70;;;1.60;;
17727;SDS011;8984;49.268;12.302;2023-05-10T13:48:59;1.70;;;1.50;;
17727;SDS011;8984;49.268;12.302;2023-05-10T13:51:28;1.93;;;1.43;;
17727;SDS011;8984;49.268;12.302;2023-05-10T13:53:56;1.77;;;1.27;;
17727;SDS011;8984;49.268;12.302;2023-05-10T13:56:23;4.57;;;2.50;;
17727;SDS011;8984;49.268;12.302;2023-05-10T13:58:50;3.20;;;1.40;;
17727;SDS011;8984;49.268;12.302;2023-05-10T14:01:17;1.40;;;1.00;;
17727;SDS011;8984;49.268;12.302;2023-05-10T14:03:44;3.30;;;1.30;;
17727;SDS011;8984;49.268;12.302;2023-05-10T14:06:11;3.23;;;1.23;;
17727;SDS011;8984;49.268;12.302;2023-05-10T14:08:39;3.57;;;1.57;;
17727;SDS011;8984;49.268;12.302;2023-05-10T14:11:06;1.80;;;1.00;;
17727;SDS011;8984;49.268;12.302;2023-05-10T14:13:33;1.40;;;0.93;;
17727;SDS011;8984;49.268;12.302;2023-05-10T14:16:00;2.40;;;1.10;;
17727;SDS011;8984;49.268;12.302;2023-05-10T14:18:27;0.60;;;0.60;;
17727;SDS011;8984;49.268;12.302;2023-05-10T14:20:54;0.80;;;0.80;;
17727;SDS011;8984;49.268;12.302;2023-05-10T14:23:21;1.67;;;1.00;;
17727;SDS011;8984;49.268;12.302;2023-05-10T14:25:51;3.40;;;1.00;;
17727;SDS011;8984;49.268;12.302;2023-05-10T14:28:18;1.70;;;1.47;;
17727;SDS011;8984;49.268;12.302;2023-05-10T14:30:45;1.63;;;1.10;;
17727;SDS011;8984;49.268;12.302;2023-05-10T14:33:12;1.83;;;1.20;;
17727;SDS011;8984;49.268;12.302;2023-05-10T14:35:39;3.17;;;1.00;;
17727;SDS011;8984;49.268;12.302;2023-05-10T14:38:06;1.00;;;0.90;;
17727;SDS011;8984;49.268;12.302;2023-05-10T14:40:32;1.17;;;1.00;;
17727;SDS011;8984;49.268;12.302;2023-05-10T14:43:01;1.83;;;1.20;;
17727;SDS011;8984;49.268;12.302;2023-05-10T14:45:28;2.30;;;0.90;;
17727;SDS011;8984;49.268;12.302;2023-05-10T14:47:54;1.63;;;1.00;;
17727;SDS011;8984;49.268;12.302;2023-05-10T14:50:21;0.90;;;0.90;;
17727;SDS011;8984;49.268;12.302;2023-05-10T14:52:48;2.00;;;1.00;;
17727;SDS011;8984;49.268;12.302;2023-05-10T14:55:15;1.10;;;0.97;;